sensor_id;sensor_type;location;lat;lon;timestamp;temperature;humidity
72712;SHT30;60828;40.292;17.998;2022-10-30T00:00:19;16.19;90.10
72712;SHT30;60828;40.292;17.998;2022-10-30T00:02:45;16.24;90.11
72712;SHT30;60828;40.292;17.998;2022-10-30T00:05:11;16.17;90.03
72712;SHT30;60828;40.292;17.998;2022-10-30T00:07:36;16.22;90.12
72712;SHT30;60828;40.292;17.998;2022-10-30T00:10:01;16.22;90.14
72712;SHT30;60828;40.292;17.998;2022-10-30T00:12:27;16.19;90.31
72712;SHT30;60828;40.292;17.998;2022-10-30T00:14:52;16.16;90.32
72712;SHT30;60828;40.292;17.998;2022-10-30T00:17:17;16.20;90.35
72712;SHT30;60828;40.292;17.998;2022-10-30T00:19:43;16.20;90.49
72712;SHT30;60828;40.292;17.998;2022-10-30T00:22:08;16.17;90.38
72712;SHT30;60828;40.292;17.998;2022-10-30T00:24:34;16.19;90.40
72712;SHT30;60828;40.292;17.998;2022-10-30T00:26:59;16.12;90.48
72712;SHT30;60828;40.292;17.998;2022-10-30T00:29:24;16.12;90.45
72712;SHT30;60828;40.292;17.998;2022-10-30T00:31:51;16.09;90.62
72712;SHT30;60828;40.292;17.998;2022-10-30T00:34:16;16.10;90.63
72712;SHT30;60828;40.292;17.998;2022-10-30T00:36:41;16.09;90.63
72712;SHT30;60828;40.292;17.998;2022-10-30T00:39:07;16.08;90.47
72712;SHT30;60828;40.292;17.998;2022-10-30T00:41:32;16.06;90.48
72712;SHT30;60828;40.292;17.998;2022-10-30T00:43:58;16.02;90.67
72712;SHT30;60828;40.292;17.998;2022-10-30T00:46:30;16.03;90.66
72712;SHT30;60828;40.292;17.998;2022-10-30T00:49:01;16.03;90.77
72712;SHT30;60828;40.292;17.998;2022-10-30T00:51:28;16.06;90.84
72712;SHT30;60828;40.292;17.998;2022-10-30T00:53:55;16.14;90.90
72712;SHT30;60828;40.292;17.998;2022-10-30T00:56:22;16.16;90.74
72712;SHT30;60828;40.292;17.998;2022-10-30T00:58:50;16.20;90.78
72712;SHT30;60828;40.292;17.998;2022-10-30T01:01:17;16.24;90.71
72712;SHT30;60828;40.292;17.998;2022-10-30T01:03:43;16.24;90.85
72712;SHT30;60828;40.292;17.998;2022-10-30T01:06:10;16.26;90.82
72712;SHT30;60828;40.292;17.998;2022-10-30T01:08:37;16.24;90.81
72712;SHT30;60828;40.292;17.998;2022-10-30T01:11:04;16.24;90.89
72712;SHT30;60828;40.292;17.998;2022-10-30T01:13:30;16.24;90.85
72712;SHT30;60828;40.292;17.998;2022-10-30T01:18:27;16.29;90.78
72712;SHT30;60828;40.292;17.998;2022-10-30T01:23:35;16.29;90.87
72712;SHT30;60828;40.292;17.998;2022-10-30T01:28:45;16.29;90.96
72712;SHT30;60828;40.292;17.998;2022-10-30T01:38:52;16.31;90.86
72712;SHT30;60828;40.292;17.998;2022-10-30T01:41:18;16.33;90.93
72712;SHT30;60828;40.292;17.998;2022-10-30T01:43:44;16.34;90.82
72712;SHT30;60828;40.292;17.998;2022-10-30T01:53:35;16.27;90.89
72712;SHT30;60828;40.292;17.998;2022-10-30T01:58:43;16.34;90.79
72712;SHT30;60828;40.292;17.998;2022-10-30T02:01:11;16.34;90.78
72712;SHT30;60828;40.292;17.998;2022-10-30T02:03:37;16.37;90.75
72712;SHT30;60828;40.292;17.998;2022-10-30T02:06:03;16.43;90.79
72712;SHT30;60828;40.292;17.998;2022-10-30T02:08:28;16.34;90.64
72712;SHT30;60828;40.292;17.998;2022-10-30T02:10:53;16.34;90.88
72712;SHT30;60828;40.292;17.998;2022-10-30T02:13:19;16.39;90.84
72712;SHT30;60828;40.292;17.998;2022-10-30T02:15:45;16.34;90.79
72712;SHT30;60828;40.292;17.998;2022-10-30T02:18:11;16.40;90.72
72712;SHT30;60828;40.292;17.998;2022-10-30T02:20:37;16.40;90.80
72712;SHT30;60828;40.292;17.998;2022-10-30T02:23:02;16.36;90.77
72712;SHT30;60828;40.292;17.998;2022-10-30T02:25:28;16.41;90.81
72712;SHT30;60828;40.292;17.998;2022-10-30T02:27:53;16.40;90.73
72712;SHT30;60828;40.292;17.998;2022-10-30T02:30:18;16.36;90.78
72712;SHT30;60828;40.292;17.998;2022-10-30T02:32:44;16.37;90.73
72712;SHT30;60828;40.292;17.998;2022-10-30T02:35:09;16.37;90.75
72712;SHT30;60828;40.292;17.998;2022-10-30T02:37:35;16.36;90.89
72712;SHT30;60828;40.292;17.998;2022-10-30T02:40:03;16.36;90.86
72712;SHT30;60828;40.292;17.998;2022-10-30T02:42:28;16.34;90.90
72712;SHT30;60828;40.292;17.998;2022-10-30T02:44:54;16.33;90.95
72712;SHT30;60828;40.292;17.998;2022-10-30T02:47:19;16.30;90.98
72712;SHT30;60828;40.292;17.998;2022-10-30T02:49:44;16.34;90.86
72712;SHT30;60828;40.292;17.998;2022-10-30T02:52:10;16.31;90.82
72712;SHT30;60828;40.292;17.998;2022-10-30T02:54:35;16.27;90.93
72712;SHT30;60828;40.292;17.998;2022-10-30T02:57:01;16.29;91.02
72712;SHT30;60828;40.292;17.998;2022-10-30T02:59:26;16.29;91.02
72712;SHT30;60828;40.292;17.998;2022-10-30T03:01:51;16.29;90.93
72712;SHT30;60828;40.292;17.998;2022-10-30T03:04:17;16.24;91.05
72712;SHT30;60828;40.292;17.998;2022-10-30T03:06:42;16.26;91.32
72712;SHT30;60828;40.292;17.998;2022-10-30T03:09:08;16.29;91.26
72712;SHT30;60828;40.292;17.998;2022-10-30T03:11:33;16.31;91.14
72712;SHT30;60828;40.292;17.998;2022-10-30T03:13:58;16.23;91.14
72712;SHT30;60828;40.292;17.998;2022-10-30T03:16:24;16.23;91.20
72712;SHT30;60828;40.292;17.998;2022-10-30T03:18:50;16.20;91.25
72712;SHT30;60828;40.292;17.998;2022-10-30T03:21:17;16.19;91.32
72712;SHT30;60828;40.292;17.998;2022-10-30T03:23:43;16.20;91.33
72712;SHT30;60828;40.292;17.998;2022-10-30T03:26:08;16.19;91.34
72712;SHT30;60828;40.292;17.998;2022-10-30T03:28:33;16.17;91.30
72712;SHT30;60828;40.292;17.998;2022-10-30T03:31:17;16.17;91.29
72712;SHT30;60828;40.292;17.998;2022-10-30T03:33:43;16.20;91.22
72712;SHT30;60828;40.292;17.998;2022-10-30T03:36:09;16.16;91.18
72712;SHT30;60828;40.292;17.998;2022-10-30T03:38:35;16.16;91.08
72712;SHT30;60828;40.292;17.998;2022-10-30T03:41:00;16.16;90.97
72712;SHT30;60828;40.292;17.998;2022-10-30T03:43:26;16.12;90.93
72712;SHT30;60828;40.292;17.998;2022-10-30T03:45:52;16.12;91.02
72712;SHT30;60828;40.292;17.998;2022-10-30T03:48:18;16.12;91.00
72712;SHT30;60828;40.292;17.998;2022-10-30T03:50:44;16.13;90.98
72712;SHT30;60828;40.292;17.998;2022-10-30T03:53:10;16.10;91.00
72712;SHT30;60828;40.292;17.998;2022-10-30T03:55:35;16.09;91.09
72712;SHT30;60828;40.292;17.998;2022-10-30T03:58:01;16.05;91.07
72712;SHT30;60828;40.292;17.998;2022-10-30T04:00:26;16.03;91.02
72712;SHT30;60828;40.292;17.998;2022-10-30T04:02:51;15.99;91.18
72712;SHT30;60828;40.292;17.998;2022-10-30T04:05:21;16.01;91.15
72712;SHT30;60828;40.292;17.998;2022-10-30T04:07:46;16.01;91.09
72712;SHT30;60828;40.292;17.998;2022-10-30T04:10:11;16.06;91.07
72712;SHT30;60828;40.292;17.998;2022-10-30T04:12:38;16.02;91.07
72712;SHT30;60828;40.292;17.998;2022-10-30T04:15:04;15.99;91.11
72712;SHT30;60828;40.292;17.998;2022-10-30T04:17:30;15.95;91.07
72712;SHT30;60828;40.292;17.998;2022-10-30T04:19:55;15.93;91.07
72712;SHT30;60828;40.292;17.998;2022-10-30T04:22:20;15.93;91.18
72712;SHT30;60828;40.292;17.998;2022-10-30T04:24:46;15.95;91.08
72712;SHT30;60828;40.292;17.998;2022-10-30T04:27:13;15.92;91.03
72712;SHT30;60828;40.292;17.998;2022-10-30T04:29:38;15.88;91.19
72712;SHT30;60828;40.292;17.998;2022-10-30T04:32:06;15.85;91.14
72712;SHT30;60828;40.292;17.998;2022-10-30T04:34:31;15.88;91.23
72712;SHT30;60828;40.292;17.998;2022-10-30T04:36:56;15.81;91.19
72712;SHT30;60828;40.292;17.998;2022-10-30T04:39:22;15.79;91.37
72712;SHT30;60828;40.292;17.998;2022-10-30T04:41:47;15.79;91.32
72712;SHT30;60828;40.292;17.998;2022-10-30T04:44:12;15.79;91.28
72712;SHT30;60828;40.292;17.998;2022-10-30T04:46:38;15.82;91.25
72712;SHT30;60828;40.292;17.998;2022-10-30T04:49:03;15.72;91.25
72712;SHT30;60828;40.292;17.998;2022-10-30T04:51:28;15.77;91.33
72712;SHT30;60828;40.292;17.998;2022-10-30T04:53:54;15.79;91.27
72712;SHT30;60828;40.292;17.998;2022-10-30T04:56:19;15.72;91.31
72712;SHT30;60828;40.292;17.998;2022-10-30T04:58:44;15.69;91.40
72712;SHT30;60828;40.292;17.998;2022-10-30T05:01:10;15.72;91.69
72712;SHT30;60828;40.292;17.998;2022-10-30T05:03:35;15.71;91.63
72712;SHT30;60828;40.292;17.998;2022-10-30T05:06:01;15.74;91.56
72712;SHT30;60828;40.292;17.998;2022-10-30T05:08:28;15.72;91.56
72712;SHT30;60828;40.292;17.998;2022-10-30T05:10:53;15.71;91.72
72712;SHT30;60828;40.292;17.998;2022-10-30T05:13:20;15.69;91.81
72712;SHT30;60828;40.292;17.998;2022-10-30T05:15:45;15.81;91.79
72712;SHT30;60828;40.292;17.998;2022-10-30T05:18:10;15.75;91.79
72712;SHT30;60828;40.292;17.998;2022-10-30T05:20:36;15.78;91.75
72712;SHT30;60828;40.292;17.998;2022-10-30T05:23:02;15.75;91.74
72712;SHT30;60828;40.292;17.998;2022-10-30T05:25:27;15.74;91.83
72712;SHT30;60828;40.292;17.998;2022-10-30T05:27:59;15.85;91.74
72712;SHT30;60828;40.292;17.998;2022-10-30T05:30:28;15.91;91.85
72712;SHT30;60828;40.292;17.998;2022-10-30T05:33:02;15.93;91.73
72712;SHT30;60828;40.292;17.998;2022-10-30T05:35:28;16.02;91.61
72712;SHT30;60828;40.292;17.998;2022-10-30T05:37:53;16.02;91.49
72712;SHT30;60828;40.292;17.998;2022-10-30T05:40:18;16.13;91.33
72712;SHT30;60828;40.292;17.998;2022-10-30T05:42:44;16.23;91.05
72712;SHT30;60828;40.292;17.998;2022-10-30T05:45:10;16.26;90.68
72712;SHT30;60828;40.292;17.998;2022-10-30T05:47:35;16.34;90.56
72712;SHT30;60828;40.292;17.998;2022-10-30T05:50:01;16.53;90.27
72712;SHT30;60828;40.292;17.998;2022-10-30T05:52:26;16.56;89.85
72712;SHT30;60828;40.292;17.998;2022-10-30T05:54:53;16.68;89.67
72712;SHT30;60828;40.292;17.998;2022-10-30T05:57:18;16.87;89.19
72712;SHT30;60828;40.292;17.998;2022-10-30T05:59:43;16.95;88.84
72712;SHT30;60828;40.292;17.998;2022-10-30T06:02:09;17.09;88.36
72712;SHT30;60828;40.292;17.998;2022-10-30T06:04:34;17.33;87.81
72712;SHT30;60828;40.292;17.998;2022-10-30T06:06:59;17.59;87.01
72712;SHT30;60828;40.292;17.998;2022-10-30T06:09:25;17.95;86.43
72712;SHT30;60828;40.292;17.998;2022-10-30T06:11:50;18.24;85.35
72712;SHT30;60828;40.292;17.998;2022-10-30T06:14:15;18.70;84.57
72712;SHT30;60828;40.292;17.998;2022-10-30T06:16:40;19.26;83.82
72712;SHT30;60828;40.292;17.998;2022-10-30T06:19:06;19.39;83.06
72712;SHT30;60828;40.292;17.998;2022-10-30T06:21:31;20.38;81.23
72712;SHT30;60828;40.292;17.998;2022-10-30T06:23:57;21.20;78.12
72712;SHT30;60828;40.292;17.998;2022-10-30T06:26:23;21.08;78.85
72712;SHT30;60828;40.292;17.998;2022-10-30T06:28:48;21.97;77.16
72712;SHT30;60828;40.292;17.998;2022-10-30T06:31:13;21.99;75.86
72712;SHT30;60828;40.292;17.998;2022-10-30T06:33:38;22.21;76.66
72712;SHT30;60828;40.292;17.998;2022-10-30T06:36:04;23.12;73.48
72712;SHT30;60828;40.292;17.998;2022-10-30T06:38:29;23.63;72.76
72712;SHT30;60828;40.292;17.998;2022-10-30T06:40:54;24.05;71.39
72712;SHT30;60828;40.292;17.998;2022-10-30T06:43:20;24.53;70.45
72712;SHT30;60828;40.292;17.998;2022-10-30T06:45:45;24.59;69.33
72712;SHT30;60828;40.292;17.998;2022-10-30T06:48:10;24.78;68.67
72712;SHT30;60828;40.292;17.998;2022-10-30T06:50:36;25.52;67.03
72712;SHT30;60828;40.292;17.998;2022-10-30T06:53:01;25.65;66.11
72712;SHT30;60828;40.292;17.998;2022-10-30T06:55:26;25.29;67.31
72712;SHT30;60828;40.292;17.998;2022-10-30T06:57:52;25.52;67.99
72712;SHT30;60828;40.292;17.998;2022-10-30T07:00:18;25.89;65.98
72712;SHT30;60828;40.292;17.998;2022-10-30T07:02:43;24.88;68.79
72712;SHT30;60828;40.292;17.998;2022-10-30T07:05:09;26.02;65.59
72712;SHT30;60828;40.292;17.998;2022-10-30T07:07:34;25.29;67.89
72712;SHT30;60828;40.292;17.998;2022-10-30T07:09:59;25.80;65.81
72712;SHT30;60828;40.292;17.998;2022-10-30T07:12:25;26.10;64.62
72712;SHT30;60828;40.292;17.998;2022-10-30T07:14:50;26.44;64.15
72712;SHT30;60828;40.292;17.998;2022-10-30T07:17:15;26.60;63.55
72712;SHT30;60828;40.292;17.998;2022-10-30T07:19:41;26.71;63.26
72712;SHT30;60828;40.292;17.998;2022-10-30T07:22:06;26.87;63.00
72712;SHT30;60828;40.292;17.998;2022-10-30T07:24:31;27.02;62.01
72712;SHT30;60828;40.292;17.998;2022-10-30T07:26:57;27.13;62.44
72712;SHT30;60828;40.292;17.998;2022-10-30T07:29:22;26.56;63.58
72712;SHT30;60828;40.292;17.998;2022-10-30T07:31:47;26.79;63.58
72712;SHT30;60828;40.292;17.998;2022-10-30T07:34:13;26.20;65.16
72712;SHT30;60828;40.292;17.998;2022-10-30T07:36:39;26.02;65.42
72712;SHT30;60828;40.292;17.998;2022-10-30T07:39:04;24.83;68.00
72712;SHT30;60828;40.292;17.998;2022-10-30T07:41:29;25.72;67.41
72712;SHT30;60828;40.292;17.998;2022-10-30T07:43:55;26.62;65.22
72712;SHT30;60828;40.292;17.998;2022-10-30T07:46:20;25.79;65.71
72712;SHT30;60828;40.292;17.998;2022-10-30T07:48:46;24.84;68.10
72712;SHT30;60828;40.292;17.998;2022-10-30T07:51:11;25.97;65.55
72712;SHT30;60828;40.292;17.998;2022-10-30T07:53:39;26.38;64.97
72712;SHT30;60828;40.292;17.998;2022-10-30T07:56:04;27.23;62.64
72712;SHT30;60828;40.292;17.998;2022-10-30T07:58:30;27.79;59.89
72712;SHT30;60828;40.292;17.998;2022-10-30T08:00:55;27.04;62.43
72712;SHT30;60828;40.292;17.998;2022-10-30T08:03:20;26.39;64.55
72712;SHT30;60828;40.292;17.998;2022-10-30T08:05:46;26.44;65.03
72712;SHT30;60828;40.292;17.998;2022-10-30T08:08:11;27.03;61.91
72712;SHT30;60828;40.292;17.998;2022-10-30T08:10:36;26.37;63.04
72712;SHT30;60828;40.292;17.998;2022-10-30T08:13:02;28.12;58.34
72712;SHT30;60828;40.292;17.998;2022-10-30T08:15:27;27.44;60.40
72712;SHT30;60828;40.292;17.998;2022-10-30T08:17:53;27.61;59.97
72712;SHT30;60828;40.292;17.998;2022-10-30T08:20:19;27.42;59.59
72712;SHT30;60828;40.292;17.998;2022-10-30T08:22:45;28.09;58.76
72712;SHT30;60828;40.292;17.998;2022-10-30T08:25:11;28.51;58.18
72712;SHT30;60828;40.292;17.998;2022-10-30T08:27:37;29.27;55.92
72712;SHT30;60828;40.292;17.998;2022-10-30T08:30:02;28.68;56.96
72712;SHT30;60828;40.292;17.998;2022-10-30T08:32:27;28.51;55.98
72712;SHT30;60828;40.292;17.998;2022-10-30T08:34:53;28.83;55.21
72712;SHT30;60828;40.292;17.998;2022-10-30T08:37:18;28.34;57.14
72712;SHT30;60828;40.292;17.998;2022-10-30T08:39:43;28.72;54.73
72712;SHT30;60828;40.292;17.998;2022-10-30T08:42:09;26.92;58.79
72712;SHT30;60828;40.292;17.998;2022-10-30T08:44:34;27.85;55.36
72712;SHT30;60828;40.292;17.998;2022-10-30T08:46:59;28.62;54.93
72712;SHT30;60828;40.292;17.998;2022-10-30T08:49:25;27.93;55.82
72712;SHT30;60828;40.292;17.998;2022-10-30T08:51:50;27.20;59.68
72712;SHT30;60828;40.292;17.998;2022-10-30T08:54:15;27.21;59.52
72712;SHT30;60828;40.292;17.998;2022-10-30T08:56:41;27.34;59.95
72712;SHT30;60828;40.292;17.998;2022-10-30T08:59:06;28.07;57.60
72712;SHT30;60828;40.292;17.998;2022-10-30T09:01:31;27.61;59.44
72712;SHT30;60828;40.292;17.998;2022-10-30T09:03:57;27.73;58.04
72712;SHT30;60828;40.292;17.998;2022-10-30T09:06:22;28.16;57.14
72712;SHT30;60828;40.292;17.998;2022-10-30T09:08:47;29.36;54.29
72712;SHT30;60828;40.292;17.998;2022-10-30T09:11:13;28.71;54.23
72712;SHT30;60828;40.292;17.998;2022-10-30T09:13:38;29.33;53.42
72712;SHT30;60828;40.292;17.998;2022-10-30T09:16:03;27.59;57.63
72712;SHT30;60828;40.292;17.998;2022-10-30T09:18:29;28.81;55.02
72712;SHT30;60828;40.292;17.998;2022-10-30T09:20:54;27.68;57.53
72712;SHT30;60828;40.292;17.998;2022-10-30T09:23:20;26.79;58.91
72712;SHT30;60828;40.292;17.998;2022-10-30T09:25:45;27.47;57.86
72712;SHT30;60828;40.292;17.998;2022-10-30T09:28:10;26.60;59.37
72712;SHT30;60828;40.292;17.998;2022-10-30T09:30:36;26.93;58.96
72712;SHT30;60828;40.292;17.998;2022-10-30T09:33:01;25.59;62.81
72712;SHT30;60828;40.292;17.998;2022-10-30T09:35:27;25.19;64.79
72712;SHT30;60828;40.292;17.998;2022-10-30T09:37:53;24.94;64.85
72712;SHT30;60828;40.292;17.998;2022-10-30T09:43:05;23.39;68.32
72712;SHT30;60828;40.292;17.998;2022-10-30T10:00:19;23.23;67.95
72712;SHT30;60828;40.292;17.998;2022-10-30T10:07:41;22.88;69.05
72712;SHT30;60828;40.292;17.998;2022-10-30T10:10:10;23.00;68.49
72712;SHT30;60828;40.292;17.998;2022-10-30T10:12:51;22.76;68.62
72712;SHT30;60828;40.292;17.998;2022-10-30T10:15:24;22.88;69.72
72712;SHT30;60828;40.292;17.998;2022-10-30T10:17:53;23.23;69.32
72712;SHT30;60828;40.292;17.998;2022-10-30T10:20:32;23.17;69.28
72712;SHT30;60828;40.292;17.998;2022-10-30T10:22:59;22.87;69.54
72712;SHT30;60828;40.292;17.998;2022-10-30T10:25:27;22.94;69.36
72712;SHT30;60828;40.292;17.998;2022-10-30T10:28:13;23.10;69.35
72712;SHT30;60828;40.292;17.998;2022-10-30T10:33:38;22.82;69.84
72712;SHT30;60828;40.292;17.998;2022-10-30T10:49:14;23.20;67.10
72712;SHT30;60828;40.292;17.998;2022-10-30T10:51:46;23.31;66.36
72712;SHT30;60828;40.292;17.998;2022-10-30T10:54:36;23.00;67.83
72712;SHT30;60828;40.292;17.998;2022-10-30T10:57:00;22.87;66.40
72712;SHT30;60828;40.292;17.998;2022-10-30T10:59:41;23.15;65.92
72712;SHT30;60828;40.292;17.998;2022-10-30T11:02:29;23.19;65.45
72712;SHT30;60828;40.292;17.998;2022-10-30T11:05:00;23.06;66.27
72712;SHT30;60828;40.292;17.998;2022-10-30T11:07:29;23.30;65.08
72712;SHT30;60828;40.292;17.998;2022-10-30T11:09:56;23.37;65.01
72712;SHT30;60828;40.292;17.998;2022-10-30T11:12:25;22.89;67.03
72712;SHT30;60828;40.292;17.998;2022-10-30T11:14:51;23.05;66.67
72712;SHT30;60828;40.292;17.998;2022-10-30T11:17:21;22.87;65.45
72712;SHT30;60828;40.292;17.998;2022-10-30T11:19:48;23.03;63.71
72712;SHT30;60828;40.292;17.998;2022-10-30T11:22:37;22.99;63.41
72712;SHT30;60828;40.292;17.998;2022-10-30T11:25:20;22.92;63.80
72712;SHT30;60828;40.292;17.998;2022-10-30T11:27:47;22.95;65.62
72712;SHT30;60828;40.292;17.998;2022-10-30T11:30:16;23.17;64.73
72712;SHT30;60828;40.292;17.998;2022-10-30T11:32:42;22.88;63.98
72712;SHT30;60828;40.292;17.998;2022-10-30T11:35:10;22.84;64.70
72712;SHT30;60828;40.292;17.998;2022-10-30T11:37:37;22.99;65.69
72712;SHT30;60828;40.292;17.998;2022-10-30T11:42:34;22.85;64.73
72712;SHT30;60828;40.292;17.998;2022-10-30T11:44:59;23.00;64.64
72712;SHT30;60828;40.292;17.998;2022-10-30T11:47:32;22.94;63.76
72712;SHT30;60828;40.292;17.998;2022-10-30T11:49:58;23.27;62.08
72712;SHT30;60828;40.292;17.998;2022-10-30T11:52:25;23.57;61.53
72712;SHT30;60828;40.292;17.998;2022-10-30T11:54:52;23.47;63.57
72712;SHT30;60828;40.292;17.998;2022-10-30T11:57:19;23.85;62.68
72712;SHT30;60828;40.292;17.998;2022-10-30T11:59:46;23.67;61.60
72712;SHT30;60828;40.292;17.998;2022-10-30T12:02:24;23.88;62.05
72712;SHT30;60828;40.292;17.998;2022-10-30T12:05:31;24.21;62.86
72712;SHT30;60828;40.292;17.998;2022-10-30T12:07:38;24.46;61.70
72712;SHT30;60828;40.292;17.998;2022-10-30T12:10:04;24.23;60.38
72712;SHT30;60828;40.292;17.998;2022-10-30T12:12:35;24.29;60.72
72712;SHT30;60828;40.292;17.998;2022-10-30T12:15:35;23.84;60.25
72712;SHT30;60828;40.292;17.998;2022-10-30T12:17:53;24.00;61.39
72712;SHT30;60828;40.292;17.998;2022-10-30T12:20:19;24.28;60.77
72712;SHT30;60828;40.292;17.998;2022-10-30T12:22:45;24.16;61.13
72712;SHT30;60828;40.292;17.998;2022-10-30T12:25:23;24.05;62.48
72712;SHT30;60828;40.292;17.998;2022-10-30T12:27:57;23.71;63.06
72712;SHT30;60828;40.292;17.998;2022-10-30T12:30:23;23.50;63.33
72712;SHT30;60828;40.292;17.998;2022-10-30T12:32:57;23.16;64.82
72712;SHT30;60828;40.292;17.998;2022-10-30T12:37:53;23.30;64.12
72712;SHT30;60828;40.292;17.998;2022-10-30T12:40:23;23.27;64.95
72712;SHT30;60828;40.292;17.998;2022-10-30T12:43:01;23.02;65.66
72712;SHT30;60828;40.292;17.998;2022-10-30T12:45:39;23.17;65.43
72712;SHT30;60828;40.292;17.998;2022-10-30T12:56:05;22.79;66.70
72712;SHT30;60828;40.292;17.998;2022-10-30T12:58:43;22.76;66.74
72712;SHT30;60828;40.292;17.998;2022-10-30T13:03:40;22.98;67.05
72712;SHT30;60828;40.292;17.998;2022-10-30T13:06:12;23.08;67.23
72712;SHT30;60828;40.292;17.998;2022-10-30T13:08:54;22.88;67.05
72712;SHT30;60828;40.292;17.998;2022-10-30T13:11:27;22.73;66.61
72712;SHT30;60828;40.292;17.998;2022-10-30T13:13:57;22.68;65.84
72712;SHT30;60828;40.292;17.998;2022-10-30T13:16:27;22.43;65.53
72712;SHT30;60828;40.292;17.998;2022-10-30T13:18:56;22.67;65.96
72712;SHT30;60828;40.292;17.998;2022-10-30T13:24:51;22.55;65.55
72712;SHT30;60828;40.292;17.998;2022-10-30T13:27:01;22.54;65.44
72712;SHT30;60828;40.292;17.998;2022-10-30T13:29:30;22.67;65.53
72712;SHT30;60828;40.292;17.998;2022-10-30T13:34:38;22.61;65.12
72712;SHT30;60828;40.292;17.998;2022-10-30T13:39:37;22.88;64.91
72712;SHT30;60828;40.292;17.998;2022-10-30T13:47:57;22.55;63.24
72712;SHT30;60828;40.292;17.998;2022-10-30T13:52:53;22.57;63.15
72712;SHT30;60828;40.292;17.998;2022-10-30T13:57:46;22.55;64.14
72712;SHT30;60828;40.292;17.998;2022-10-30T14:03:26;22.64;62.70
72712;SHT30;60828;40.292;17.998;2022-10-30T14:11:21;22.40;62.82
72712;SHT30;60828;40.292;17.998;2022-10-30T14:17:02;22.47;62.97
72712;SHT30;60828;40.292;17.998;2022-10-30T14:19:08;22.41;64.01
72712;SHT30;60828;40.292;17.998;2022-10-30T14:21:44;22.27;65.37
72712;SHT30;60828;40.292;17.998;2022-10-30T14:24:16;22.24;64.99
72712;SHT30;60828;40.292;17.998;2022-10-30T14:26:45;22.17;65.03
72712;SHT30;60828;40.292;17.998;2022-10-30T14:37:15;22.21;66.83
72712;SHT30;60828;40.292;17.998;2022-10-30T14:39:45;22.02;67.98
72712;SHT30;60828;40.292;17.998;2022-10-30T14:44:51;21.93;66.81
72712;SHT30;60828;40.292;17.998;2022-10-30T14:49:46;21.97;67.49
72712;SHT30;60828;40.292;17.998;2022-10-30T14:54:43;21.83;68.02
72712;SHT30;60828;40.292;17.998;2022-10-30T14:57:19;21.68;69.10
72712;SHT30;60828;40.292;17.998;2022-10-30T14:59:45;21.51;70.05
72712;SHT30;60828;40.292;17.998;2022-10-30T15:07:37;21.06;72.26
72712;SHT30;60828;40.292;17.998;2022-10-30T15:10:17;21.06;72.67
72712;SHT30;60828;40.292;17.998;2022-10-30T15:15:13;20.87;73.67
72712;SHT30;60828;40.292;17.998;2022-10-30T15:17:39;20.79;74.20
72712;SHT30;60828;40.292;17.998;2022-10-30T15:22:40;20.53;75.28
72712;SHT30;60828;40.292;17.998;2022-10-30T15:25:12;20.44;75.57
72712;SHT30;60828;40.292;17.998;2022-10-30T15:27:38;20.25;76.20
72712;SHT30;60828;40.292;17.998;2022-10-30T15:30:05;20.21;76.17
72712;SHT30;60828;40.292;17.998;2022-10-30T15:32:31;20.11;76.53
72712;SHT30;60828;40.292;17.998;2022-10-30T15:35:00;20.04;76.91
72712;SHT30;60828;40.292;17.998;2022-10-30T15:37:27;19.91;77.44
72712;SHT30;60828;40.292;17.998;2022-10-30T15:40:09;19.84;77.96
72712;SHT30;60828;40.292;17.998;2022-10-30T15:42:34;19.74;78.40
72712;SHT30;60828;40.292;17.998;2022-10-30T15:45:00;19.69;78.60
72712;SHT30;60828;40.292;17.998;2022-10-30T15:47:26;19.62;78.89
72712;SHT30;60828;40.292;17.998;2022-10-30T15:49:52;19.52;79.28
72712;SHT30;60828;40.292;17.998;2022-10-30T15:52:23;19.48;79.54
72712;SHT30;60828;40.292;17.998;2022-10-30T15:54:56;19.45;79.63
72712;SHT30;60828;40.292;17.998;2022-10-30T15:57:29;19.32;80.00
72712;SHT30;60828;40.292;17.998;2022-10-30T15:59:56;19.29;80.14
72712;SHT30;60828;40.292;17.998;2022-10-30T16:02:23;19.18;80.42
72712;SHT30;60828;40.292;17.998;2022-10-30T16:04:50;19.14;80.58
72712;SHT30;60828;40.292;17.998;2022-10-30T16:09:50;18.97;81.12
72712;SHT30;60828;40.292;17.998;2022-10-30T16:12:15;18.93;81.26
72712;SHT30;60828;40.292;17.998;2022-10-30T16:14:41;18.86;81.69
72712;SHT30;60828;40.292;17.998;2022-10-30T16:17:07;18.80;82.03
72712;SHT30;60828;40.292;17.998;2022-10-30T16:19:38;18.76;82.25
72712;SHT30;60828;40.292;17.998;2022-10-30T16:22:05;18.74;82.28
72712;SHT30;60828;40.292;17.998;2022-10-30T16:24:34;18.77;82.40
72712;SHT30;60828;40.292;17.998;2022-10-30T16:27:04;18.71;82.58
72712;SHT30;60828;40.292;17.998;2022-10-30T16:29:29;18.70;82.54
72712;SHT30;60828;40.292;17.998;2022-10-30T16:31:55;18.68;82.74
72712;SHT30;60828;40.292;17.998;2022-10-30T16:34:24;18.61;82.81
72712;SHT30;60828;40.292;17.998;2022-10-30T16:36:51;18.59;82.91
72712;SHT30;60828;40.292;17.998;2022-10-30T16:39:17;18.56;83.01
72712;SHT30;60828;40.292;17.998;2022-10-30T16:41:43;18.53;83.15
72712;SHT30;60828;40.292;17.998;2022-10-30T16:49:06;18.33;83.67
72712;SHT30;60828;40.292;17.998;2022-10-30T16:51:32;18.33;83.80
72712;SHT30;60828;40.292;17.998;2022-10-30T16:53:58;18.26;83.93
72712;SHT30;60828;40.292;17.998;2022-10-30T16:56:24;18.22;84.15
72712;SHT30;60828;40.292;17.998;2022-10-30T16:58:50;18.16;84.19
72712;SHT30;60828;40.292;17.998;2022-10-30T17:01:17;18.11;84.38
72712;SHT30;60828;40.292;17.998;2022-10-30T17:03:42;18.11;84.46
72712;SHT30;60828;40.292;17.998;2022-10-30T17:06:24;18.08;84.65
72712;SHT30;60828;40.292;17.998;2022-10-30T17:08:51;18.01;84.80
72712;SHT30;60828;40.292;17.998;2022-10-30T17:11:17;17.97;84.97
72712;SHT30;60828;40.292;17.998;2022-10-30T17:13:56;17.97;85.05
72712;SHT30;60828;40.292;17.998;2022-10-30T17:16:29;17.92;85.11
72712;SHT30;60828;40.292;17.998;2022-10-30T17:18:56;17.88;85.20
72712;SHT30;60828;40.292;17.998;2022-10-30T17:21:23;17.90;85.27
72712;SHT30;60828;40.292;17.998;2022-10-30T17:23:49;17.87;85.26
72712;SHT30;60828;40.292;17.998;2022-10-30T17:26:16;17.80;85.51
72712;SHT30;60828;40.292;17.998;2022-10-30T17:28:42;17.74;85.62
72712;SHT30;60828;40.292;17.998;2022-10-30T17:33:46;17.67;85.77
72712;SHT30;60828;40.292;17.998;2022-10-30T17:36:12;17.73;85.72
72712;SHT30;60828;40.292;17.998;2022-10-30T17:38:37;17.67;85.73
72712;SHT30;60828;40.292;17.998;2022-10-30T17:41:03;17.66;85.75